Terminal Aerodrome Forecast
Issued by NWS

Home | Current Version | Previous Version | Graphics & Text | Print | Product List | Glossary On
Versions: 1 2 3 4 5 6 7 8 9 10 11 12 13 14 15 16
000
FTUS43 KGRB 281700
TAFMTW
TAF
KMTW 281729Z 2818/2918 18011KT P6SM BKN026
     FM282100 12008KT P6SM SCT040 OVC080
     FM290030 11004KT 5SM -SHRA OVC040
     FM290500 12004KT 3SM RA BR OVC025
     FM291400 17008KT 5SM -SHRA SCT017 OVC023
      TEMPO 2914/2918 2SM TSRA OVC017CB=

USA.gov is the U.S. government's official web portal to all federal, state and local government web resources and services.